Time;durP1;ratioP1;P1;durP2;ratioP2;P2;SDS_P1;SDS_P2;PMS_P1;PMS_P2;Temp;Humidity;BMP_temperature;BMP_pressure;BME280_temperature;BME280_humidity;BME280_pressure;Samples;Min_cycle;Max_cycle;Signal;HPM_P1;HPM_P2
2023/05/14 00:02:33;;;;;;;18.13;7.32;;;11.50;99.90;;;;;;4975378;28;20502;-80
2023/05/14 00:05:19;;;;;;;19.58;7.85;;;11.50;99.90;;;;;;4974900;28;20137;-80
2023/05/14 00:08:05;;;;;;;15.10;7.63;;;11.50;99.90;;;;;;4990555;28;20054;-81
2023/05/14 00:10:51;;;;;;;16.63;6.75;;;11.50;99.90;;;;;;4991693;28;20053;-82
2023/05/14 00:13:38;;;;;;;11.10;6.15;;;11.50;99.90;;;;;;4973822;28;20093;-81
2023/05/14 00:16:24;;;;;;;13.20;5.88;;;11.50;99.90;;;;;;4979148;28;20112;-81
2023/05/14 00:19:13;;;;;;;11.70;5.65;;;11.50;99.90;;;;;;4961102;28;20054;-81
2023/05/14 00:22:02;;;;;;;13.82;6.20;;;11.60;99.90;;;;;;4974026;28;20060;-80
2023/05/14 00:24:48;;;;;;;19.67;7.15;;;11.50;99.90;;;;;;4974428;28;20184;-79
2023/05/14 00:27:36;;;;;;;13.13;5.40;;;11.60;99.90;;;;;;4974477;28;20054;-79
2023/05/14 00:30:22;;;;;;;12.90;6.43;;;11.60;99.90;;;;;;4974387;28;20050;-79
2023/05/14 00:33:08;;;;;;;12.30;5.93;;;11.50;99.90;;;;;;4973350;28;20101;-79
2023/05/14 00:35:55;;;;;;;18.33;6.65;;;11.50;99.90;;;;;;4960007;28;20060;-80
2023/05/14 00:38:41;;;;;;;14.25;6.85;;;11.50;99.90;;;;;;4974411;28;20388;-81
2023/05/14 00:41:27;;;;;;;19.45;5.90;;;11.50;99.90;;;;;;4959740;28;20047;-80
2023/05/14 00:44:16;;;;;;;13.00;6.20;;;11.60;99.90;;;;;;4991229;28;20082;-80
2023/05/14 00:47:02;;;;;;;11.82;6.05;;;11.60;99.90;;;;;;4991836;28;20774;-80
2023/05/14 00:49:49;;;;;;;11.63;6.00;;;11.50;99.90;;;;;;4959672;28;20055;-80
2023/05/14 00:52:37;;;;;;;13.98;6.15;;;11.50;99.90;;;;;;4973111;28;20050;-80
2023/05/14 00:55:25;;;;;;;13.07;6.93;;;11.60;99.90;;;;;;4973342;28;20465;-80
2023/05/14 00:58:12;;;;;;;12.52;6.30;;;11.60;99.90;;;;;;4973140;28;20073;-81
2023/05/14 01:00:59;;;;;;;11.98;6.40;;;11.60;99.90;;;;;;4990611;28;20085;-80
2023/05/14 01:03:45;;;;;;;17.77;7.05;;;11.60;99.90;;;;;;4990280;28;20104;-80
2023/05/14 01:06:57;;;;;;;19.02;6.15;;;11.60;99.90;;;;;;4991863;28;20509;-80
2023/05/14 01:10:04;;;;;;;17.20;7.20;;;11.50;99.90;;;;;;4978231;28;20054;-80
2023/05/14 01:13:08;;;;;;;15.45;6.97;;;11.60;99.90;;;;;;4973759;28;20066;-80
2023/05/14 01:15:59;;;;;;;16.65;7.40;;;11.50;99.90;;;;;;4959873;28;20422;-80
2023/05/14 01:18:49;;;;;;;15.98;8.05;;;11.50;99.90;;;;;;4972916;28;20137;-80
2023/05/14 01:21:39;;;;;;;15.18;6.85;;;11.50;99.90;;;;;;4972274;28;20069;-80
2023/05/14 01:24:28;;;;;;;18.98;7.43;;;11.50;99.90;;;;;;4973066;28;20096;-81
2023/05/14 01:27:18;;;;;;;16.13;5.85;;;11.50;99.90;;;;;;4973369;28;20047;-81
2023/05/14 01:30:27;;;;;;;13.70;5.55;;;11.50;99.90;;;;;;4973362;28;20043;-80
2023/05/14 01:33:17;;;;;;;19.85;5.97;;;11.50;99.90;;;;;;4960050;28;20507;-80
2023/05/14 01:36:03;;;;;;;15.02;4.75;;;11.40;99.90;;;;;;4959724;28;20050;-80
2023/05/14 01:38:50;;;;;;;15.20;5.22;;;11.40;99.90;;;;;;4959279;28;20053;-79
2023/05/14 01:41:38;;;;;;;18.13;4.75;;;11.40;99.90;;;;;;4976089;28;20137;-81
2023/05/14 01:44:24;;;;;;;23.02;5.97;;;11.40;99.90;;;;;;4973089;28;20065;-80
2023/05/14 01:47:10;;;;;;;11.90;4.97;;;11.40;99.90;;;;;;4947305;28;20109;-80
2023/05/14 01:49:56;;;;;;;17.00;5.35;;;11.40;99.90;;;;;;4993573;28;20063;-81
2023/05/14 01:52:47;;;;;;;18.23;5.82;;;11.40;99.90;;;;;;4963890;28;20046;-79
2023/05/14 01:55:33;;;;;;;18.77;5.65;;;11.40;99.90;;;;;;4993380;28;20054;-80
2023/05/14 01:58:19;;;;;;;11.30;4.90;;;11.40;99.90;;;;;;4976666;28;20418;-81
2023/05/14 02:01:05;;;;;;;20.85;7.05;;;11.40;99.90;;;;;;4976653;28;20050;-79
2023/05/14 02:03:52;;;;;;;19.98;6.13;;;11.40;99.90;;;;;;4976498;28;20050;-80
2023/05/14 02:06:39;;;;;;;18.17;5.18;;;11.40;99.90;;;;;;4976199;28;20448;-80
2023/05/14 02:09:25;;;;;;;28.67;6.18;;;11.40;99.90;;;;;;4976780;28;20049;-80
2023/05/14 02:12:12;;;;;;;13.60;5.35;;;11.40;99.90;;;;;;4993625;28;20046;-80
2023/05/14 02:14:58;;;;;;;15.07;4.93;;;11.40;99.90;;;;;;4994313;28;20058;-81
2023/05/14 02:17:47;;;;;;;21.92;5.80;;;11.40;99.90;;;;;;4994748;28;20773;-81
2023/05/14 02:20:33;;;;;;;23.67;6.93;;;11.30;99.90;;;;;;4979017;28;20085;-80
2023/05/14 02:23:19;;;;;;;20.30;7.22;;;11.40;99.90;;;;;;4995042;28;20054;-81
2023/05/14 02:26:05;;;;;;;14.65;5.80;;;11.40;99.90;;;;;;4976949;28;20454;-80
2023/05/14 02:28:55;;;;;;;17.95;6.22;;;11.40;99.90;;;;;;4994870;28;20050;-80
2023/05/14 02:31:42;;;;;;;27.65;6.95;;;11.40;99.90;;;;;;4976326;28;20077;-81
2023/05/14 02:34:28;;;;;;;20.88;6.50;;;11.40;99.90;;;;;;4962395;28;20115;-80
2023/05/14 02:37:14;;;;;;;20.23;6.80;;;11.40;99.90;;;;;;4992928;28;20069;-79
2023/05/14 02:40:00;;;;;;;23.77;7.82;;;11.50;99.90;;;;;;4992676;28;20050;-81
2023/05/14 02:42:46;;;;;;;12.77;6.03;;;11.50;99.90;;;;;;4993908;28;20046;-80
2023/05/14 02:45:32;;;;;;;30.25;6.55;;;11.50;99.90;;;;;;4976531;28;20419;-78
2023/05/14 02:48:19;;;;;;;14.85;5.40;;;11.50;99.90;;;;;;4976016;28;20054;-78
2023/05/14 02:51:07;;;;;;;17.17;5.32;;;11.50;99.90;;;;;;4976130;28;20514;-79
2023/05/14 02:53:53;;;;;;;23.73;6.15;;;11.50;99.90;;;;;;4949236;28;20056;-79
2023/05/14 02:56:39;;;;;;;14.85;5.60;;;11.50;99.90;;;;;;4982076;28;20565;-79
2023/05/14 02:59:25;;;;;;;13.05;5.63;;;11.50;99.90;;;;;;4998452;28;20049;-80
2023/05/14 03:02:12;;;;;;;21.33;5.45;;;11.50;99.90;;;;;;4994701;28;20246;-78
2023/05/14 03:04:58;;;;;;;17.65;5.63;;;11.50;99.90;;;;;;4982094;28;20070;-79
2023/05/14 03:07:44;;;;;;;15.82;5.40;;;11.50;99.90;;;;;;4997045;28;20433;-80
2023/05/14 03:10:31;;;;;;;18.65;5.68;;;11.50;99.90;;;;;;4994608;28;20061;-80
2023/05/14 03:13:19;;;;;;;18.65;5.35;;;11.50;99.90;;;;;;4967953;28;20045;-79
2023/05/14 03:16:08;;;;;;;12.98;5.68;;;11.50;99.90;;;;;;4998032;28;20053;-78
2023/05/14 03:18:54;;;;;;;16.73;5.28;;;11.50;99.90;;;;;;4994524;28;20428;-79
2023/05/14 03:21:41;;;;;;;18.35;5.82;;;11.40;99.90;;;;;;4994987;28;20085;-79
2023/05/14 03:24:27;;;;;;;15.98;6.50;;;11.40;99.90;;;;;;4994095;28;20053;-79
2023/05/14 03:27:13;;;;;;;14.85;6.15;;;11.40;99.90;;;;;;5011531;28;20081;-80
2023/05/14 03:29:59;;;;;;;22.65;5.95;;;11.40;99.90;;;;;;4993796;28;20050;-79
2023/05/14 03:32:45;;;;;;;18.17;5.28;;;11.40;99.90;;;;;;4993333;28;20494;-79
2023/05/14 03:35:32;;;;;;;16.58;5.38;;;11.40;99.90;;;;;;4995162;28;20129;-81
2023/05/14 03:38:18;;;;;;;17.88;4.78;;;11.40;99.90;;;;;;5010964;28;20143;-81
2023/05/14 03:41:04;;;;;;;13.23;5.50;;;11.40;99.90;;;;;;4997649;28;20090;-81
2023/05/14 03:43:50;;;;;;;21.23;5.18;;;11.40;99.90;;;;;;4994441;28;20089;-80
2023/05/14 03:46:36;;;;;;;16.02;5.45;;;11.40;99.90;;;;;;5012303;28;20050;-81
2023/05/14 03:49:24;;;;;;;21.13;5.32;;;11.30;99.90;;;;;;4981366;28;20209;-79
2023/05/14 03:52:10;;;;;;;21.50;5.68;;;11.40;99.90;;;;;;4981013;28;20917;-79
2023/05/14 03:54:56;;;;;;;15.80;5.03;;;11.40;99.90;;;;;;4996190;28;20057;-80
2023/05/14 03:57:47;;;;;;;13.43;4.72;;;11.40;99.90;;;;;;4994348;28;20056;-80
2023/05/14 04:00:33;;;;;;;18.50;5.05;;;11.40;99.90;;;;;;4997791;28;20056;-80
2023/05/14 04:03:19;;;;;;;21.35;6.13;;;11.50;99.90;;;;;;4995448;28;20077;-79
2023/05/14 04:06:05;;;;;;;17.38;5.25;;;11.40;99.90;;;;;;5010358;28;20129;-80
2023/05/14 04:08:51;;;;;;;16.65;5.60;;;11.50;99.90;;;;;;4993306;28;20056;-79
2023/05/14 04:11:37;;;;;;;13.60;4.70;;;11.50;99.90;;;;;;4979914;28;20050;-79
2023/05/14 04:14:23;;;;;;;16.40;4.85;;;11.50;99.90;;;;;;4994668;28;20476;-78
2023/05/14 04:17:10;;;;;;;19.95;5.63;;;11.60;99.90;;;;;;4995964;28;20042;-78
2023/05/14 04:19:56;;;;;;;18.33;5.60;;;11.60;99.90;;;;;;4994230;28;20050;-78
2023/05/14 04:22:42;;;;;;;17.92;6.07;;;11.60;99.90;;;;;;4994352;28;20080;-80
2023/05/14 04:25:28;;;;;;;13.05;5.80;;;11.60;99.90;;;;;;4979732;28;20058;-79
2023/05/14 04:28:14;;;;;;;21.20;6.90;;;11.60;99.90;;;;;;4993500;28;20053;-80
2023/05/14 04:31:00;;;;;;;18.58;5.80;;;11.70;99.90;;;;;;5011010;28;20180;-80
2023/05/14 04:33:46;;;;;;;15.50;6.25;;;11.80;99.90;;;;;;4994120;28;20481;-80
2023/05/14 04:36:32;;;;;;;19.70;6.70;;;11.80;99.90;;;;;;4994404;28;20127;-80
2023/05/14 04:39:19;;;;;;;15.60;6.72;;;11.80;99.90;;;;;;4993131;28;20053;-80
2023/05/14 04:42:05;;;;;;;17.95;5.70;;;11.80;99.90;;;;;;5010357;28;20499;-80
2023/05/14 04:44:51;;;;;;;19.60;6.80;;;11.90;99.90;;;;;;4980018;28;20107;-80
2023/05/14 04:47:38;;;;;;;33.75;6.60;;;11.90;99.90;;;;;;4992858;28;20060;-79
2023/05/14 04:50:25;;;;;;;17.77;6.05;;;11.90;99.90;;;;;;4995677;28;20140;-79
2023/05/14 04:53:11;;;;;;;20.23;7.05;;;11.90;99.90;;;;;;5009608;28;20073;-79
2023/05/14 04:55:57;;;;;;;18.10;6.30;;;11.90;99.90;;;;;;5008589;28;20089;-80
2023/05/14 04:58:43;;;;;;;23.75;7.15;;;11.90;99.90;;;;;;5009070;28;20506;-79
2023/05/14 05:01:29;;;;;;;20.83;6.35;;;11.90;99.90;;;;;;5009939;28;20060;-79
2023/05/14 05:04:15;;;;;;;20.08;7.15;;;11.90;99.90;;;;;;4992652;28;20409;-80
2023/05/14 05:07:01;;;;;;;18.17;5.40;;;11.90;99.90;;;;;;4993598;28;20116;-80
2023/05/14 05:09:47;;;;;;;19.90;6.45;;;12.00;99.90;;;;;;4993535;28;20133;-81
2023/05/14 05:12:34;;;;;;;19.15;6.25;;;12.00;99.90;;;;;;4992903;28;20057;-80
2023/05/14 05:15:20;;;;;;;17.25;5.35;;;12.00;99.90;;;;;;4992623;28;20422;-80
2023/05/14 05:18:06;;;;;;;21.27;6.80;;;12.00;99.90;;;;;;4979761;28;20077;-80
2023/05/14 05:20:52;;;;;;;20.85;6.18;;;12.00;99.90;;;;;;4992971;28;20112;-80
2023/05/14 05:23:38;;;;;;;26.52;6.63;;;12.00;99.90;;;;;;5010020;28;20058;-79
2023/05/14 05:26:27;;;;;;;19.35;6.43;;;11.90;99.90;;;;;;4979493;28;20049;-80
2023/05/14 05:29:13;;;;;;;19.05;7.07;;;11.90;99.90;;;;;;4979382;28;20065;-79
2023/05/14 05:32:01;;;;;;;29.08;7.22;;;11.90;99.90;;;;;;4966007;28;20052;-78
2023/05/14 05:34:47;;;;;;;20.02;5.78;;;12.00;99.90;;;;;;4992665;28;20486;-80
2023/05/14 05:37:33;;;;;;;23.27;5.95;;;12.10;99.90;;;;;;4996113;28;20065;-78
2023/05/14 05:40:19;;;;;;;18.80;5.97;;;12.00;99.90;;;;;;5008442;28;20057;-80
2023/05/14 05:43:05;;;;;;;19.83;6.78;;;12.00;99.90;;;;;;4993245;28;20077;-80
2023/05/14 05:45:51;;;;;;;18.63;6.88;;;12.10;99.90;;;;;;5009576;28;20054;-80
2023/05/14 05:48:37;;;;;;;18.20;6.68;;;12.10;99.90;;;;;;4992467;28;20514;-79
2023/05/14 05:51:23;;;;;;;21.48;6.85;;;12.20;99.90;;;;;;4978732;28;20054;-77
2023/05/14 05:54:09;;;;;;;17.58;6.07;;;12.30;99.90;;;;;;5010362;28;20111;-79
2023/05/14 05:56:58;;;;;;;20.70;5.72;;;12.30;99.90;;;;;;4993139;28;20054;-78
2023/05/14 05:59:44;;;;;;;18.88;4.95;;;12.40;99.90;;;;;;4978835;28;20140;-79
2023/05/14 06:02:30;;;;;;;15.77;5.88;;;12.50;99.90;;;;;;4991953;28;20054;-79
2023/05/14 06:05:16;;;;;;;14.27;4.85;;;12.50;99.90;;;;;;5010918;28;20144;-80
2023/05/14 06:08:03;;;;;;;19.45;5.38;;;12.60;99.90;;;;;;4990162;28;20568;-78
2023/05/14 06:10:49;;;;;;;20.10;6.00;;;12.70;99.90;;;;;;4993393;28;20402;-79
2023/05/14 06:13:35;;;;;;;17.10;4.88;;;12.70;99.90;;;;;;4978750;28;20049;-79
2023/05/14 06:16:21;;;;;;;16.65;4.10;;;12.70;99.90;;;;;;4992635;28;20053;-79
2023/05/14 06:19:07;;;;;;;15.15;4.80;;;12.90;99.90;;;;;;5010028;28;20251;-80
2023/05/14 06:21:53;;;;;;;12.27;4.43;;;12.90;99.90;;;;;;4991677;28;20494;-79
2023/05/14 06:24:39;;;;;;;22.85;5.53;;;13.10;99.90;;;;;;5010235;28;20489;-79
2023/05/14 06:27:25;;;;;;;17.73;4.68;;;13.10;99.90;;;;;;5009853;28;20449;-80
2023/05/14 06:30:12;;;;;;;13.02;5.43;;;13.20;99.90;;;;;;5009544;28;20100;-79
2023/05/14 06:32:58;;;;;;;17.00;5.53;;;13.20;99.90;;;;;;4992063;28;20061;-79
2023/05/14 06:35:44;;;;;;;14.60;4.32;;;13.20;99.90;;;;;;4995471;28;20083;-80
2023/05/14 06:38:31;;;;;;;13.40;4.47;;;13.30;99.90;;;;;;5012618;28;20100;-79
2023/05/14 06:41:17;;;;;;;16.95;4.45;;;13.30;99.90;;;;;;4995974;28;20050;-79
2023/05/14 06:44:03;;;;;;;12.60;4.65;;;13.40;99.90;;;;;;5013204;28;20143;-79
2023/05/14 06:46:49;;;;;;;22.77;4.95;;;13.40;99.90;;;;;;5004256;28;20080;-79
2023/05/14 06:49:35;;;;;;;12.32;4.55;;;13.40;99.90;;;;;;4982231;28;20042;-79
2023/05/14 06:52:22;;;;;;;12.30;4.63;;;13.50;99.90;;;;;;4994224;28;20054;-80
2023/05/14 06:55:08;;;;;;;15.15;4.15;;;13.50;99.90;;;;;;5012945;28;20104;-80
2023/05/14 06:57:55;;;;;;;17.55;6.18;;;13.60;99.90;;;;;;4995626;28;20405;-80
2023/05/14 07:00:42;;;;;;;22.88;5.10;;;13.60;99.90;;;;;;4998244;28;20050;-80
2023/05/14 07:03:28;;;;;;;12.00;4.40;;;13.70;99.90;;;;;;4982275;28;20068;-80
2023/05/14 07:06:14;;;;;;;15.65;3.90;;;13.80;99.90;;;;;;4994285;28;20054;-80
2023/05/14 07:09:01;;;;;;;12.93;4.15;;;13.90;99.90;;;;;;4995318;28;20054;-80
2023/05/14 07:11:47;;;;;;;18.83;4.93;;;14.10;99.90;;;;;;4998235;28;20045;-79
2023/05/14 07:14:33;;;;;;;17.08;4.43;;;14.30;99.90;;;;;;4994448;28;20057;-80
2023/05/14 07:17:19;;;;;;;16.73;4.25;;;14.50;99.90;;;;;;5010593;28;20050;-81
2023/05/14 07:20:06;;;;;;;13.57;5.00;;;14.80;99.90;;;;;;4995944;28;20136;-80
2023/05/14 07:22:52;;;;;;;14.02;3.85;;;14.80;99.90;;;;;;5012277;28;20576;-79
2023/05/14 07:25:38;;;;;;;10.98;3.60;;;14.90;99.90;;;;;;4994565;28;20064;-80
2023/05/14 07:28:25;;;;;;;12.13;3.65;;;14.90;99.90;;;;;;5009871;28;20548;-80
2023/05/14 07:31:11;;;;;;;12.48;4.53;;;14.90;99.90;;;;;;4992699;28;20053;-80
2023/05/14 07:33:57;;;;;;;12.90;4.43;;;15.10;99.90;;;;;;4996555;28;20050;-81
2023/05/14 07:36:43;;;;;;;13.13;3.63;;;15.20;99.90;;;;;;5011714;28;20445;-79
2023/05/14 07:39:29;;;;;;;14.07;4.30;;;15.40;99.90;;;;;;4993421;28;20042;-81
2023/05/14 07:42:15;;;;;;;14.70;4.53;;;15.40;99.90;;;;;;4981057;28;20046;-80
2023/05/14 07:45:02;;;;;;;14.73;3.95;;;15.40;99.90;;;;;;4980414;28;20057;-79
2023/05/14 07:47:51;;;;;;;9.70;3.35;;;15.50;99.90;;;;;;4981429;28;20049;-80
2023/05/14 07:50:37;;;;;;;14.05;4.75;;;15.70;99.90;;;;;;5010444;28;20136;-81
2023/05/14 07:53:24;;;;;;;17.38;4.13;;;15.80;99.90;;;;;;4981723;28;20132;-81
2023/05/14 07:56:10;;;;;;;17.83;4.78;;;16.00;99.90;;;;;;5011745;28;20057;-80
2023/05/14 07:58:56;;;;;;;11.52;3.35;;;16.10;99.90;;;;;;4993846;28;20048;-79
2023/05/14 08:01:43;;;;;;;16.55;4.43;;;16.30;99.90;;;;;;4992868;28;20490;-79
2023/05/14 08:04:29;;;;;;;13.07;3.55;;;16.40;99.90;;;;;;4994147;28;20092;-80
2023/05/14 08:07:15;;;;;;;16.13;4.22;;;16.40;99.90;;;;;;4980101;28;20072;-80
2023/05/14 08:10:01;;;;;;;17.48;3.90;;;16.60;99.90;;;;;;4997371;28;20494;-80
2023/05/14 08:12:47;;;;;;;11.98;3.67;;;16.80;99.90;;;;;;5012753;28;20434;-81
2023/05/14 08:15:33;;;;;;;11.48;3.50;;;16.80;99.90;;;;;;4993049;28;20062;-81
2023/05/14 08:18:20;;;;;;;12.80;4.28;;;17.00;99.90;;;;;;5012116;28;20041;-81
2023/05/14 08:21:06;;;;;;;16.58;3.75;;;16.80;99.90;;;;;;4994414;28;20406;-81
2023/05/14 08:23:52;;;;;;;21.00;3.78;;;16.80;99.90;;;;;;5011414;28;20046;-81
2023/05/14 08:26:38;;;;;;;10.90;4.03;;;16.90;99.90;;;;;;4994220;28;20064;-81
2023/05/14 08:29:24;;;;;;;11.02;3.47;;;17.20;99.90;;;;;;4993669;28;20046;-80
2023/05/14 08:32:11;;;;;;;9.13;3.40;;;17.50;99.90;;;;;;4980098;28;20456;-81
2023/05/14 08:34:57;;;;;;;17.33;4.35;;;17.60;99.90;;;;;;4998495;28;20052;-80
2023/05/14 08:37:43;;;;;;;16.40;4.05;;;17.80;99.90;;;;;;5009764;28;20469;-81
2023/05/14 08:40:29;;;;;;;14.13;4.22;;;18.00;99.90;;;;;;4993191;28;20457;-79
2023/05/14 08:43:22;;;;;;;11.95;3.83;;;18.20;99.90;;;;;;5010823;28;20049;-80
2023/05/14 08:46:12;;;;;;;9.88;3.38;;;18.30;99.90;;;;;;4992660;28;20061;-81
2023/05/14 08:49:17;;;;;;;13.40;3.78;;;18.20;99.90;;;;;;4979335;28;20058;-80
2023/05/14 08:52:04;;;;;;;13.67;4.30;;;18.20;99.90;;;;;;5011491;28;20049;-80
2023/05/14 08:54:51;;;;;;;14.18;4.15;;;18.40;99.90;;;;;;4978611;28;20201;-81
2023/05/14 08:57:37;;;;;;;12.48;4.32;;;18.60;99.90;;;;;;4992474;28;20089;-81
2023/05/14 09:00:25;;;;;;;14.95;4.25;;;18.60;99.90;;;;;;5009852;28;20045;-80
2023/05/14 09:03:11;;;;;;;16.70;4.20;;;18.50;99.90;;;;;;4980195;28;20060;-79
2023/05/14 09:05:58;;;;;;;12.02;3.67;;;18.70;99.90;;;;;;4991151;28;20054;-81
2023/05/14 09:08:45;;;;;;;19.67;4.53;;;18.80;99.90;;;;;;4993106;28;20077;-81
2023/05/14 09:11:31;;;;;;;10.18;3.95;;;18.80;99.90;;;;;;4992838;28;20056;-80
2023/05/14 09:14:18;;;;;;;13.23;4.18;;;18.90;99.90;;;;;;4992506;28;20049;-80
2023/05/14 09:17:04;;;;;;;11.60;3.83;;;19.10;99.90;;;;;;4991905;28;20112;-79
2023/05/14 09:19:51;;;;;;;14.05;4.82;;;18.90;99.90;;;;;;4993438;28;20136;-81
2023/05/14 09:22:38;;;;;;;13.20;4.82;;;19.10;99.90;;;;;;4978134;28;20054;-80
2023/05/14 09:25:32;;;;;;;12.88;4.63;;;19.10;99.90;;;;;;5009200;28;20141;-80
2023/05/14 09:28:20;;;;;;;17.60;4.47;;;19.10;99.90;;;;;;4993279;28;20081;-81
2023/05/14 09:31:06;;;;;;;12.23;3.83;;;19.40;99.90;;;;;;4979338;28;20498;-81
2023/05/14 09:33:52;;;;;;;11.40;4.13;;;19.70;99.90;;;;;;5009230;28;20046;-80
2023/05/14 09:36:38;;;;;;;15.23;4.65;;;19.70;99.90;;;;;;4980571;28;20096;-81
2023/05/14 09:39:25;;;;;;;9.75;3.80;;;19.90;99.90;;;;;;4993082;28;20506;-79
2023/05/14 09:42:11;;;;;;;14.77;4.35;;;20.00;99.90;;;;;;4991262;28;20423;-80
2023/05/14 09:44:58;;;;;;;8.82;4.53;;;20.00;99.90;;;;;;4994760;28;20532;-81
2023/05/14 09:47:44;;;;;;;15.85;4.97;;;20.00;99.90;;;;;;5009435;28;20149;-80
2023/05/14 09:50:30;;;;;;;12.63;5.03;;;20.00;99.90;;;;;;5010126;28;20058;-80
2023/05/14 09:53:17;;;;;;;12.57;4.00;;;20.20;99.90;;;;;;5010442;28;20050;-80
2023/05/14 09:56:03;;;;;;;15.98;3.92;;;20.30;99.90;;;;;;5009195;28;20075;-80
2023/05/14 09:58:49;;;;;;;14.20;4.68;;;20.50;99.90;;;;;;4991942;28;20054;-79
2023/05/14 10:01:36;;;;;;;11.77;4.28;;;20.50;99.90;;;;;;4992023;28;20104;-80
2023/05/14 10:04:23;;;;;;;12.82;4.57;;;20.60;99.90;;;;;;4992752;28;20058;-80
2023/05/14 10:07:11;;;;;;;10.63;4.32;;;20.70;99.90;;;;;;4992803;28;20402;-80
2023/05/14 10:10:01;;;;;;;12.35;4.47;;;20.80;99.90;;;;;;4981682;28;20684;-80
2023/05/14 10:12:54;;;;;;;9.65;4.22;;;20.70;99.90;;;;;;4982914;28;20089;-80
2023/05/14 10:16:15;;;;;;;12.20;5.05;;;20.90;99.90;;;;;;4981822;28;20446;-81
2023/05/14 10:19:11;;;;;;;20.13;5.53;;;21.10;99.90;;;;;;4982230;28;20148;-79
2023/05/14 10:22:05;;;;;;;13.15;4.80;;;21.10;99.90;;;;;;4995790;28;20053;-80
2023/05/14 10:24:52;;;;;;;14.63;4.97;;;21.10;99.90;;;;;;4969350;28;20050;-80
2023/05/14 10:27:40;;;;;;;16.30;5.25;;;21.00;99.90;;;;;;4995491;28;20861;-80
2023/05/14 10:30:26;;;;;;;14.23;5.82;;;21.10;99.90;;;;;;4996266;28;20053;-80
2023/05/14 10:33:17;;;;;;;11.25;4.75;;;21.40;99.90;;;;;;5014475;28;20050;-81
2023/05/14 10:36:05;;;;;;;12.07;5.15;;;21.50;99.90;;;;;;5011987;28;20112;-81
2023/05/14 10:38:56;;;;;;;16.08;5.95;;;21.90;99.90;;;;;;4994393;28;20419;-82
2023/05/14 10:41:42;;;;;;;11.52;6.00;;;22.00;99.20;;;;;;5013525;28;20057;-82
2023/05/14 10:44:28;;;;;;;14.68;6.10;;;22.00;98.90;;;;;;5012525;28;20646;-80
2023/05/14 10:47:18;;;;;;;14.15;5.80;;;22.00;98.90;;;;;;4995029;28;20532;-80
2023/05/14 10:50:06;;;;;;;14.02;6.28;;;21.90;98.80;;;;;;4982109;28;20115;-81
2023/05/14 10:52:54;;;;;;;10.65;6.10;;;21.90;99.10;;;;;;4981223;28;20046;-81
2023/05/14 10:55:41;;;;;;;16.17;6.78;;;21.90;98.90;;;;;;4993719;28;20108;-81
2023/05/14 10:58:31;;;;;;;12.75;5.32;;;21.90;99.00;;;;;;4994618;28;20056;-80
2023/05/14 11:01:17;;;;;;;12.40;6.72;;;22.10;98.90;;;;;;4997765;28;20096;-80
2023/05/14 11:04:04;;;;;;;13.80;6.65;;;22.30;98.40;;;;;;4996239;28;20061;-79
2023/05/14 11:06:52;;;;;;;13.52;5.10;;;22.40;98.00;;;;;;4982312;28;20045;-80
2023/05/14 11:09:38;;;;;;;16.70;6.65;;;22.70;98.30;;;;;;4982597;28;20131;-81
2023/05/14 11:12:26;;;;;;;14.27;5.32;;;22.80;97.60;;;;;;4982404;28;20045;-81
2023/05/14 11:15:18;;;;;;;10.00;5.60;;;23.10;97.30;;;;;;4995226;28;20046;-81
2023/05/14 11:18:04;;;;;;;10.68;5.15;;;23.40;96.60;;;;;;5005451;28;20058;-81
2023/05/14 11:20:51;;;;;;;12.30;5.43;;;23.70;96.80;;;;;;4980622;28;20050;-80
2023/05/14 11:23:37;;;;;;;14.63;5.55;;;24.20;96.10;;;;;;4981386;28;20057;-79
2023/05/14 11:26:23;;;;;;;12.43;5.38;;;24.40;95.40;;;;;;4998226;28;20054;-79
2023/05/14 11:29:09;;;;;;;38.67;6.43;;;24.30;95.80;;;;;;5013147;28;20107;-80
2023/05/14 11:31:55;;;;;;;12.98;5.72;;;24.30;95.70;;;;;;5013979;28;20459;-79
2023/05/14 11:34:45;;;;;;;10.15;4.95;;;24.60;96.10;;;;;;5011687;28;20568;-81
2023/05/14 11:37:31;;;;;;;13.07;5.57;;;24.60;95.10;;;;;;5012207;28;20088;-82
2023/05/14 11:40:18;;;;;;;12.55;5.88;;;24.80;94.40;;;;;;4980775;28;20057;-80
2023/05/14 11:43:04;;;;;;;10.10;5.35;;;24.80;94.20;;;;;;4981238;28;20057;-80
2023/05/14 11:45:53;;;;;;;11.95;5.60;;;24.60;94.10;;;;;;4994129;28;20057;-79
2023/05/14 11:48:40;;;;;;;15.18;5.38;;;24.40;94.60;;;;;;4994535;28;20057;-80
2023/05/14 11:51:27;;;;;;;9.38;4.53;;;24.50;94.90;;;;;;4980480;28;20050;-81
2023/05/14 11:54:13;;;;;;;12.35;5.20;;;24.70;94.90;;;;;;4979846;28;20395;-81
2023/05/14 11:57:02;;;;;;;9.77;4.50;;;24.70;94.40;;;;;;4961737;28;20062;-80
2023/05/14 11:59:55;;;;;;;16.02;6.30;;;24.60;95.00;;;;;;4974003;28;20061;-81
2023/05/14 12:02:41;;;;;;;10.60;4.75;;;24.70;93.90;;;;;;4974204;28;20054;-82
2023/05/14 12:05:27;;;;;;;13.05;5.82;;;24.50;94.70;;;;;;4960292;28;20061;-80
2023/05/14 12:08:21;;;;;;;15.40;5.43;;;24.50;94.10;;;;;;4960482;28;20058;-81
2023/05/14 12:11:08;;;;;;;13.07;6.50;;;24.20;93.90;;;;;;4973727;28;20053;-81
2023/05/14 12:13:54;;;;;;;11.43;5.43;;;24.00;94.30;;;;;;4974199;28;20469;-81
2023/05/14 12:16:41;;;;;;;15.32;6.40;;;24.10;94.40;;;;;;4973963;28;20066;-81
2023/05/14 12:19:29;;;;;;;14.20;7.40;;;24.10;94.40;;;;;;4961332;28;20132;-81
2023/05/14 12:22:21;;;;;;;13.88;5.90;;;24.00;94.40;;;;;;4961930;28;20058;-80
2023/05/14 12:25:14;;;;;;;16.98;6.50;;;24.10;94.50;;;;;;4991007;28;20113;-80
2023/05/14 12:28:00;;;;;;;14.02;6.72;;;24.30;94.60;;;;;;4990237;28;20474;-81
2023/05/14 12:30:46;;;;;;;15.88;7.97;;;24.60;94.00;;;;;;4960804;28;20055;-82
2023/05/14 12:33:33;;;;;;;15.05;6.13;;;24.50;93.40;;;;;;4973397;28;20054;-81
2023/05/14 12:36:19;;;;;;;13.52;6.03;;;24.50;93.80;;;;;;4960039;28;20065;-82
2023/05/14 12:39:05;;;;;;;12.80;5.22;;;24.60;93.60;;;;;;4974305;28;20090;-82
2023/05/14 12:41:51;;;;;;;13.10;5.85;;;24.60;93.80;;;;;;4973678;28;20061;-82
2023/05/14 12:44:37;;;;;;;12.63;5.25;;;24.90;93.50;;;;;;4959816;28;20056;-81
2023/05/14 12:47:23;;;;;;;13.13;5.25;;;25.10;93.50;;;;;;4990961;28;20046;-81
2023/05/14 12:50:10;;;;;;;11.57;6.80;;;24.80;93.10;;;;;;4960017;28;20490;-81
2023/05/14 12:52:56;;;;;;;12.18;5.30;;;24.90;92.90;;;;;;4974500;28;20515;-82
2023/05/14 12:55:42;;;;;;;12.60;7.00;;;24.80;93.60;;;;;;4985692;28;20565;-81
2023/05/14 12:58:28;;;;;;;9.73;5.60;;;24.90;93.20;;;;;;5011716;28;20061;-80
2023/05/14 13:01:15;;;;;;;9.98;5.10;;;24.80;93.40;;;;;;4994237;28;20057;-82
2023/05/14 13:04:01;;;;;;;12.95;5.35;;;24.70;93.40;;;;;;4992963;28;20061;-80
2023/05/14 13:06:47;;;;;;;12.02;6.25;;;24.80;93.80;;;;;;5008441;28;20050;-79
2023/05/14 13:09:33;;;;;;;9.27;5.95;;;24.90;93.60;;;;;;4993005;28;20049;-81
2023/05/14 13:12:19;;;;;;;10.35;5.35;;;24.90;92.80;;;;;;4992874;28;20125;-79
2023/05/14 13:15:06;;;;;;;13.52;5.75;;;25.00;93.00;;;;;;4996052;28;20406;-81
2023/05/14 13:17:52;;;;;;;12.35;6.88;;;25.00;92.50;;;;;;5010479;28;20056;-82
2023/05/14 13:20:38;;;;;;;13.85;7.57;;;24.90;92.40;;;;;;4992679;28;20050;-79
2023/05/14 13:23:24;;;;;;;10.13;5.43;;;24.80;92.40;;;;;;5010719;28;20048;-79
2023/05/14 13:26:10;;;;;;;13.38;6.40;;;24.70;93.00;;;;;;4991166;28;20502;-80
2023/05/14 13:28:56;;;;;;;13.00;6.68;;;24.50;93.00;;;;;;4992730;28;20536;-79
2023/05/14 13:31:42;;;;;;;12.90;8.48;;;24.60;93.20;;;;;;4992729;28;20547;-80
2023/05/14 13:34:28;;;;;;;12.25;6.60;;;25.10;92.60;;;;;;4991764;28;20054;-79
2023/05/14 13:37:14;;;;;;;12.68;7.13;;;25.10;92.80;;;;;;4992746;28;20054;-80
2023/05/14 13:40:00;;;;;;;10.90;6.32;;;25.20;92.50;;;;;;5010373;28;20474;-80
2023/05/14 13:42:46;;;;;;;12.70;6.82;;;25.30;92.50;;;;;;4995295;28;20060;-82
2023/05/14 13:45:32;;;;;;;14.38;6.68;;;25.40;92.20;;;;;;4996531;28;20160;-80
2023/05/14 13:48:18;;;;;;;10.48;7.45;;;25.10;92.30;;;;;;5013945;28;20045;-80
2023/05/14 13:51:04;;;;;;;13.55;6.97;;;25.00;91.70;;;;;;4995820;28;20045;-81
2023/05/14 13:53:50;;;;;;;10.20;6.70;;;25.10;91.60;;;;;;5013944;28;20042;-81
2023/05/14 13:56:36;;;;;;;15.50;7.20;;;25.40;91.30;;;;;;5014748;28;20373;-81
2023/05/14 13:59:22;;;;;;;11.55;6.93;;;25.10;91.10;;;;;;5014048;28;20516;-81
2023/05/14 14:02:08;;;;;;;11.98;6.18;;;25.60;91.00;;;;;;4982483;28;20073;-81
2023/05/14 14:04:54;;;;;;;15.40;7.38;;;25.40;90.70;;;;;;4996332;28;20046;-80
2023/05/14 14:07:41;;;;;;;15.15;7.00;;;25.20;90.70;;;;;;5013181;28;20049;-82
2023/05/14 14:10:27;;;;;;;11.80;6.72;;;25.50;90.70;;;;;;4996627;28;20053;-82
2023/05/14 14:13:13;;;;;;;14.60;7.43;;;25.40;90.50;;;;;;4996640;28;20120;-81
2023/05/14 14:16:01;;;;;;;16.15;6.63;;;25.40;90.60;;;;;;4999017;28;20809;-81
2023/05/14 14:18:47;;;;;;;11.68;7.68;;;25.40;90.60;;;;;;5005698;28;20136;-80
2023/05/14 14:21:34;;;;;;;12.07;7.22;;;25.20;90.10;;;;;;4997401;28;20046;-81